createdAt,value
2016-05-26T00:00:03.012Z,0
2016-05-26T00:01:02.436Z,0
2016-05-26T00:02:03.642Z,0
2016-05-26T00:03:08.847Z,0
2016-05-26T00:04:08.757Z,0
2016-05-26T00:05:05.837Z,0
2016-05-26T00:06:02.512Z,0
2016-05-26T00:07:08.545Z,0
2016-05-26T00:08:05.626Z,0
2016-05-26T00:09:08.583Z,0
2016-05-26T00:10:09.131Z,0
2016-05-26T00:11:04.963Z,0
2016-05-26T00:12:05.293Z,0
2016-05-26T00:13:02.186Z,0
2016-05-26T00:14:02.331Z,0
2016-05-26T00:15:02.583Z,0
2016-05-26T00:16:05.555Z,0
2016-05-26T00:17:01.682Z,0
2016-05-26T00:18:11.419Z,0
2016-05-26T00:19:04.891Z,0
2016-05-26T00:20:03.331Z,0
2016-05-26T00:21:10.693Z,0
2016-05-26T00:22:04.727Z,0
2016-05-26T00:23:10.917Z,0
2016-05-26T00:24:02.154Z,0
2016-05-26T00:25:01.641Z,0
2016-05-26T00:26:04.315Z,0
2016-05-26T00:27:02.084Z,0
2016-05-26T00:28:04.415Z,0
2016-05-26T00:29:07.448Z,0
2016-05-26T00:30:01.545Z,0
2016-05-26T00:31:10.548Z,0
2016-05-26T00:32:01.597Z,0
2016-05-26T00:33:04.662Z,0
2016-05-26T00:34:13.368Z,0
2016-05-26T00:35:07.121Z,0
2016-05-26T00:36:04.109Z,0
2016-05-26T00:37:00.987Z,0
2016-05-26T00:38:10.895Z,0
2016-05-26T00:39:03.757Z,0
2016-05-26T00:40:00.853Z,0
2016-05-26T00:41:00.950Z,0
2016-05-26T00:42:03.843Z,0
2016-05-26T00:43:03.564Z,0
2016-05-26T00:44:00.552Z,0
2016-05-26T00:45:00.522Z,0
2016-05-26T00:46:02.525Z,0
2016-05-26T00:47:03.950Z,0
2016-05-26T00:48:12.609Z,0
2016-05-26T00:49:06.893Z,0
2016-05-26T00:50:09.427Z,0
2016-05-26T00:51:03.180Z,0
2016-05-26T00:52:07.791Z,0
2016-05-26T00:53:06.294Z,0
2016-05-26T00:54:03.391Z,0
2016-05-26T00:54:59.815Z,0
2016-05-26T00:56:18.302Z,0
2016-05-26T00:57:06.243Z,0
2016-05-26T00:58:00.011Z,0
2016-05-26T00:59:06.138Z,0
2016-05-26T01:00:09.079Z,0
2016-05-26T01:01:02.941Z,0
2016-05-26T01:02:08.803Z,0
2016-05-26T01:03:02.774Z,0
2016-05-26T01:04:05.559Z,0
2016-05-26T01:04:59.843Z,0
2016-05-26T01:06:09.126Z,0
2016-05-26T01:07:11.426Z,0
2016-05-26T01:08:05.350Z,0
2016-05-26T01:09:02.947Z,0
2016-05-26T01:10:05.481Z,0
2016-05-26T01:10:59.811Z,0
2016-05-26T01:12:02.690Z,0
2016-05-26T01:13:02.505Z,0
2016-05-26T01:14:04.788Z,0
2016-05-26T01:15:02.666Z,0
2016-05-26T01:16:01.981Z,0
2016-05-26T01:17:02.125Z,0
2016-05-26T01:18:02.096Z,0
2016-05-26T01:19:02.005Z,0
2016-05-26T01:19:58.899Z,0
2016-05-26T01:20:59.480Z,0
2016-05-26T01:21:59.029Z,0
2016-05-26T01:23:01.827Z,0
2016-05-26T01:23:58.988Z,0
2016-05-26T01:25:01.521Z,0
2016-05-26T01:26:04.665Z,0
2016-05-26T01:26:58.635Z,0
2016-05-26T01:27:58.373Z,0
2016-05-26T01:28:58.344Z,0
2016-05-26T01:30:01.643Z,0
2016-05-26T01:31:01.382Z,0
2016-05-26T01:32:01.415Z,0
2016-05-26T01:32:58.337Z,0
2016-05-26T01:33:57.965Z,0
2016-05-26T01:34:58.029Z,0
2016-05-26T01:36:01.504Z,0
2016-05-26T01:37:12.976Z,0
2016-05-26T01:38:04.041Z,0
2016-05-26T01:38:58.307Z,0
2016-05-26T01:40:01.015Z,0
2016-05-26T01:41:00.814Z,0
2016-05-26T01:41:58.080Z,0
2016-05-26T01:42:58.520Z,0
2016-05-26T01:44:03.759Z,0
2016-05-26T01:44:57.916Z,0
2016-05-26T01:45:57.497Z,0
2016-05-26T01:47:01.142Z,0
2016-05-26T01:48:04.536Z,0
2016-05-26T01:49:00.866Z,0
2016-05-26T01:49:57.694Z,0
2016-05-26T01:51:03.653Z,0
2016-05-26T01:52:00.781Z,0
2016-05-26T01:53:03.691Z,0
2016-05-26T01:53:57.300Z,0
2016-05-26T01:55:00.258Z,0
2016-05-26T01:56:00.417Z,0
2016-05-26T01:57:06.374Z,0
2016-05-26T01:57:57.061Z,0
2016-05-26T01:59:03.113Z,0
2016-05-26T01:59:56.957Z,0
2016-05-26T02:00:59.930Z,0
2016-05-26T02:01:59.887Z,0
2016-05-26T02:02:59.857Z,0
2016-05-26T02:04:00.188Z,0
2016-05-26T02:04:57.032Z,0
2016-05-26T02:05:59.679Z,0
2016-05-26T02:07:02.509Z,0
2016-05-26T02:07:59.574Z,0
2016-05-26T02:08:59.215Z,0
2016-05-26T02:09:59.611Z,0
2016-05-26T02:11:00.332Z,0
2016-05-26T02:12:02.303Z,0
2016-05-26T02:12:59.366Z,0
2016-05-26T02:13:56.292Z,0
2016-05-26T02:14:56.075Z,0
2016-05-26T02:15:56.217Z,0
2016-05-26T02:16:55.986Z,0
2016-05-26T02:17:56.505Z,0
2016-05-26T02:19:02.073Z,0
2016-05-26T02:19:58.839Z,0
2016-05-26T02:20:55.935Z,0
2016-05-26T02:21:58.734Z,0
2016-05-26T02:22:55.941Z,0
2016-05-26T02:23:58.802Z,0
2016-05-26T02:24:55.711Z,0
2016-05-26T02:25:58.557Z,0
2016-05-26T02:26:58.701Z,0
2016-05-26T02:27:58.625Z,0
2016-05-26T02:28:58.549Z,0
2016-05-26T02:30:10.727Z,0
2016-05-26T02:30:56.071Z,0
2016-05-26T02:32:01.248Z,0
2016-05-26T02:32:56.263Z,0
2016-05-26T02:33:55.345Z,0
2016-05-26T02:34:55.551Z,0
2016-05-26T02:35:58.054Z,0
2016-05-26T02:37:04.137Z,0
2016-05-26T02:37:54.965Z,0
2016-05-26T02:38:55.046Z,0
2016-05-26T02:39:55.407Z,0
2016-05-26T02:40:54.848Z,0
2016-05-26T02:41:54.929Z,0
2016-05-26T02:42:58.056Z,0
2016-05-26T02:43:54.793Z,0
2016-05-26T02:44:58.500Z,0
2016-05-26T02:45:55.533Z,0
2016-05-26T02:46:54.833Z,0
2016-05-26T02:47:54.944Z,0
2016-05-26T02:48:54.931Z,0
2016-05-26T02:49:54.856Z,0
2016-05-26T02:50:57.311Z,0
2016-05-26T02:51:57.455Z,0
2016-05-26T02:52:54.224Z,0
2016-05-26T02:54:03.292Z,0
2016-05-26T02:54:54.402Z,0
2016-05-26T02:55:54.405Z,0
2016-05-26T02:57:00.171Z,0
2016-05-26T02:57:57.363Z,0
2016-05-26T02:58:57.116Z,0
2016-05-26T02:59:57.086Z,0
2016-05-26T03:01:02.857Z,0
2016-05-26T03:01:54.107Z,0
2016-05-26T03:02:53.876Z,0
2016-05-26T03:03:54.222Z,0
2016-05-26T03:04:53.803Z,0
2016-05-26T03:05:53.618Z,0
2016-05-26T03:06:53.715Z,0
2016-05-26T03:07:53.639Z,0
2016-05-26T03:08:54.174Z,0
2016-05-26T03:09:53.395Z,0
2016-05-26T03:10:53.475Z,0
2016-05-26T03:11:53.462Z,0
2016-05-26T03:12:53.403Z,0
2016-05-26T03:13:59.374Z,0
2016-05-26T03:14:56.284Z,0
2016-05-26T03:15:56.426Z,0
2016-05-26T03:16:56.429Z,0
2016-05-26T03:17:59.057Z,0
2016-05-26T03:18:56.091Z,0
2016-05-26T03:20:02.314Z,0
2016-05-26T03:20:53.549Z,0
2016-05-26T03:21:56.411Z,0
2016-05-26T03:22:58.773Z,0
2016-05-26T03:23:58.932Z,0
2016-05-26T03:24:56.013Z,0
2016-05-26T03:25:55.969Z,0
2016-05-26T03:26:55.721Z,0
2016-05-26T03:28:01.677Z,0
2016-05-26T03:28:56.024Z,0
2016-05-26T03:29:56.339Z,0
2016-05-26T03:30:52.560Z,0
2016-05-26T03:31:52.501Z,0
2016-05-26T03:32:52.379Z,0
2016-05-26T03:33:58.819Z,0
2016-05-26T03:34:58.305Z,0
2016-05-26T03:35:55.104Z,0
2016-05-26T03:37:01.968Z,0
2016-05-26T03:37:55.017Z,0
2016-05-26T03:38:54.816Z,0
2016-05-26T03:39:55.068Z,0
2016-05-26T03:40:54.978Z,0
2016-05-26T03:41:52.137Z,0
2016-05-26T03:42:54.920Z,0
2016-05-26T03:43:54.861Z,0
2016-05-26T03:44:55.145Z,0
2016-05-26T03:45:51.788Z,0
2016-05-26T03:46:54.916Z,0
2016-05-26T03:47:51.981Z,0
2016-05-26T03:48:54.672Z,5
2016-05-26T03:49:51.565Z,5
2016-05-26T03:50:51.708Z,5
2016-05-26T03:52:00.742Z,5
2016-05-26T03:52:51.603Z,5
2016-05-26T03:53:54.575Z,5
2016-05-26T03:54:51.500Z,5
2016-05-26T03:55:54.269Z,5
2016-05-26T03:56:54.193Z,5
2016-05-26T03:57:57.180Z,5
2016-05-26T03:58:57.135Z,5
2016-05-26T03:59:51.576Z,5
2016-05-26T04:00:57.235Z,5
2016-05-26T04:01:50.691Z,5
2016-05-26T04:02:54.209Z,5
2016-05-26T04:03:53.868Z,5
2016-05-26T04:04:57.043Z,10
2016-05-26T04:05:50.764Z,10
2016-05-26T04:06:59.766Z,10
2016-05-26T04:07:59.707Z,10
2016-05-26T04:08:59.866Z,10
2016-05-26T04:09:50.587Z,10
2016-05-26T04:10:50.512Z,10
2016-05-26T04:11:56.342Z,10
2016-05-26T04:12:56.454Z,10
2016-05-26T04:13:53.770Z,10
2016-05-26T04:14:50.304Z,10
2016-05-26T04:15:53.665Z,10
2016-05-26T04:16:56.075Z,15
2016-05-26T04:17:56.061Z,15
2016-05-26T04:18:59.174Z,15
2016-05-26T04:19:59.115Z,15
2016-05-26T04:20:56.038Z,15
2016-05-26T04:21:50.197Z,15
2016-05-26T04:22:53.153Z,15
2016-05-26T04:23:49.891Z,15
2016-05-26T04:24:49.690Z,15
2016-05-26T04:25:52.864Z,15
2016-05-26T04:26:52.727Z,15
2016-05-26T04:27:52.823Z,20
2016-05-26T04:28:49.622Z,20
2016-05-26T04:29:49.578Z,20
2016-05-26T04:30:49.488Z,20
2016-05-26T04:31:49.474Z,20
2016-05-26T04:32:49.415Z,20
2016-05-26T04:33:52.418Z,20
2016-05-26T04:34:49.404Z,20
2016-05-26T04:35:52.282Z,20
2016-05-26T04:36:49.300Z,20
2016-05-26T04:37:55.179Z,20
2016-05-26T04:38:52.432Z,20
2016-05-26T04:39:49.090Z,20
2016-05-26T04:40:49.046Z,20
2016-05-26T04:41:49.204Z,20
2016-05-26T04:42:48.973Z,25
2016-05-26T04:43:48.741Z,20
2016-05-26T04:44:48.681Z,20
2016-05-26T04:45:48.856Z,20
2016-05-26T04:46:55.468Z,20
2016-05-26T04:47:52.251Z,20
2016-05-26T04:48:51.645Z,25
2016-05-26T04:49:48.461Z,25
2016-05-26T04:50:51.572Z,25
2016-05-26T04:51:48.356Z,25
2016-05-26T04:52:49.062Z,25
2016-05-26T04:53:54.440Z,25
2016-05-26T04:54:54.568Z,25
2016-05-26T04:55:48.507Z,25
2016-05-26T04:56:51.480Z,30
2016-05-26T04:57:51.623Z,30
2016-05-26T04:58:48.391Z,30
2016-05-26T04:59:51.613Z,30
2016-05-26T05:00:51.255Z,35
2016-05-26T05:01:54.008Z,30
2016-05-26T05:02:52.199Z,30
2016-05-26T05:03:47.763Z,30
2016-05-26T05:04:50.891Z,30
2016-05-26T05:05:53.815Z,30
2016-05-26T05:06:50.974Z,30
2016-05-26T05:07:50.588Z,30
2016-05-26T05:08:53.699Z,30
2016-05-26T05:09:50.889Z,35
2016-05-26T05:10:53.595Z,35
2016-05-26T05:11:50.379Z,35
2016-05-26T05:12:53.710Z,35
2016-05-26T05:13:50.776Z,35
2016-05-26T05:14:47.418Z,35
2016-05-26T05:15:50.327Z,35
2016-05-26T05:16:47.487Z,35
2016-05-26T05:17:47.317Z,35
2016-05-26T05:18:53.428Z,35
2016-05-26T05:19:47.134Z,35
2016-05-26T05:20:50.137Z,35
2016-05-26T05:21:50.015Z,35
2016-05-26T05:22:53.002Z,35
2016-05-26T05:23:46.928Z,35
2016-05-26T05:24:52.961Z,35
2016-05-26T05:25:46.838Z,30
2016-05-26T05:26:46.763Z,30
2016-05-26T05:27:49.734Z,30
2016-05-26T05:28:49.691Z,30
2016-05-26T05:29:49.662Z,30
2016-05-26T05:30:47.414Z,30
2016-05-26T05:31:49.558Z,30
2016-05-26T05:32:47.155Z,30
2016-05-26T05:33:55.891Z,35
2016-05-26T05:34:46.597Z,35
2016-05-26T05:35:49.335Z,35
2016-05-26T05:36:46.571Z,35
2016-05-26T05:37:49.511Z,35
2016-05-26T05:38:46.185Z,35
2016-05-26T05:39:55.173Z,35
2016-05-26T05:40:52.441Z,35
2016-05-26T05:41:55.101Z,35
2016-05-26T05:42:48.837Z,40
2016-05-26T05:43:52.152Z,40
2016-05-26T05:44:48.748Z,45
2016-05-26T05:45:45.689Z,45
2016-05-26T05:46:54.848Z,45
2016-05-26T05:47:46.351Z,45
2016-05-26T05:48:45.713Z,45
2016-05-26T05:49:51.684Z,45
2016-05-26T05:50:51.875Z,40
2016-05-26T05:51:49.315Z,45
2016-05-26T05:52:51.911Z,45
2016-05-26T05:53:52.600Z,45
2016-05-26T05:54:48.275Z,45
2016-05-26T05:55:51.419Z,45
2016-05-26T05:57:00.156Z,45
2016-05-26T05:57:45.455Z,45
2016-05-26T05:58:52.349Z,45
2016-05-26T05:59:47.992Z,45
2016-05-26T06:00:48.541Z,45
2016-05-26T06:01:51.405Z,50
2016-05-26T06:02:48.563Z,50
2016-05-26T06:03:48.394Z,50
2016-05-26T06:04:47.928Z,50
2016-05-26T06:05:47.555Z,50
2016-05-26T06:06:51.043Z,50
2016-05-26T06:07:48.013Z,50
2016-05-26T06:08:47.844Z,50
2016-05-26T06:09:47.894Z,50
2016-05-26T06:10:44.616Z,50
2016-05-26T06:11:50.634Z,50
2016-05-26T06:12:47.777Z,45
2016-05-26T06:13:47.499Z,50
2016-05-26T06:14:44.626Z,50
2016-05-26T06:15:47.613Z,55
2016-05-26T06:16:44.537Z,55
2016-05-26T06:17:50.384Z,55
2016-05-26T06:18:44.169Z,55
2016-05-26T06:19:47.406Z,60
2016-05-26T06:20:44.377Z,55
2016-05-26T06:21:47.083Z,55
2016-05-26T06:22:47.039Z,55
2016-05-26T06:23:47.010Z,55
2016-05-26T06:24:53.887Z,55
2016-05-26T06:25:43.797Z,55
2016-05-26T06:26:47.081Z,60
2016-05-26T06:27:55.864Z,60
2016-05-26T06:28:43.586Z,60
2016-05-26T06:29:52.948Z,60
2016-05-26T06:30:44.075Z,55
2016-05-26T06:31:46.453Z,55
2016-05-26T06:32:49.581Z,60
2016-05-26T06:33:55.818Z,60
2016-05-26T06:34:52.696Z,55
2016-05-26T06:35:52.463Z,55
2016-05-26T06:36:49.857Z,50
2016-05-26T06:37:49.377Z,50
2016-05-26T06:38:46.113Z,60
2016-05-26T06:39:46.116Z,55
2016-05-26T06:40:49.212Z,50
2016-05-26T06:41:49.324Z,55
2016-05-26T06:42:46.296Z,50
2016-05-26T06:43:45.955Z,50
2016-05-26T06:44:52.410Z,60
2016-05-26T06:45:45.976Z,55
2016-05-26T06:46:42.885Z,55
2016-05-26T06:47:45.824Z,50
2016-05-26T06:48:42.656Z,60
2016-05-26T06:49:48.751Z,60
2016-05-26T06:50:42.895Z,55
2016-05-26T06:51:45.664Z,55
2016-05-26T06:52:42.792Z,60
2016-05-26T06:53:45.559Z,60
2016-05-26T06:54:45.499Z,60
2016-05-26T06:55:45.503Z,60
2016-05-26T06:56:42.661Z,60
2016-05-26T06:57:48.398Z,65
2016-05-26T06:58:42.870Z,60
2016-05-26T06:59:42.138Z,60
2016-05-26T07:00:45.219Z,65
2016-05-26T07:01:42.175Z,65
2016-05-26T07:02:57.194Z,65
2016-05-26T07:03:42.477Z,65
2016-05-26T07:04:41.870Z,65
2016-05-26T07:05:47.967Z,65
2016-05-26T07:06:41.938Z,65
2016-05-26T07:07:44.722Z,65
2016-05-26T07:08:44.880Z,65
2016-05-26T07:09:42.243Z,65
2016-05-26T07:10:45.215Z,65
2016-05-26T07:11:41.748Z,65
2016-05-26T07:12:44.860Z,65
2016-05-26T07:13:41.582Z,65
2016-05-26T07:14:41.569Z,65
2016-05-26T07:15:41.337Z,65
2016-05-26T07:16:50.871Z,65
2016-05-26T07:17:41.404Z,65
2016-05-26T07:18:41.862Z,65
2016-05-26T07:19:47.521Z,65
2016-05-26T07:20:41.320Z,65
2016-05-26T07:21:44.401Z,65
2016-05-26T07:22:44.590Z,65
2016-05-26T07:23:43.953Z,65
2016-05-26T07:24:53.503Z,70
2016-05-26T07:25:41.020Z,65
2016-05-26T07:26:41.429Z,65
2016-05-26T07:27:46.964Z,65
2016-05-26T07:28:47.091Z,65
2016-05-26T07:29:40.656Z,65
2016-05-26T07:30:47.174Z,65
2016-05-26T07:31:40.833Z,65
2016-05-26T07:32:41.461Z,65
2016-05-26T07:33:43.948Z,65
2016-05-26T07:34:43.607Z,70
2016-05-26T07:35:40.375Z,70
2016-05-26T07:36:40.330Z,70
2016-05-26T07:37:43.833Z,70
2016-05-26T07:38:46.392Z,70
2016-05-26T07:39:49.435Z,70
2016-05-26T07:40:43.385Z,70
2016-05-26T07:41:40.208Z,70
2016-05-26T07:42:49.587Z,70
2016-05-26T07:43:43.771Z,70
2016-05-26T07:44:40.125Z,70
2016-05-26T07:45:43.871Z,70
2016-05-26T07:46:43.258Z,70
2016-05-26T07:47:40.220Z,70
2016-05-26T07:48:40.725Z,70
2016-05-26T07:49:43.076Z,70
2016-05-26T07:50:40.254Z,70
2016-05-26T07:51:42.994Z,70
2016-05-26T07:52:40.124Z,70
2016-05-26T07:53:42.737Z,70
2016-05-26T07:54:40.053Z,70
2016-05-26T07:55:42.792Z,70
2016-05-26T07:56:39.593Z,70
2016-05-26T07:57:39.721Z,70
2016-05-26T07:58:40.192Z,70
2016-05-26T07:59:39.618Z,70
2016-05-26T08:00:39.886Z,75
2016-05-26T08:01:39.529Z,75
2016-05-26T08:02:43.595Z,75
2016-05-26T08:03:40.488Z,75
2016-05-26T08:04:45.225Z,75
2016-05-26T08:05:39.369Z,75
2016-05-26T08:06:42.169Z,75
2016-05-26T08:07:45.515Z,70
2016-05-26T08:08:42.798Z,70
2016-05-26T08:09:42.021Z,70
2016-05-26T08:10:42.149Z,70
2016-05-26T08:11:42.854Z,75
2016-05-26T08:12:42.216Z,75
2016-05-26T08:13:44.968Z,75
2016-05-26T08:14:47.987Z,75
2016-05-26T08:15:41.880Z,75
2016-05-26T08:16:39.462Z,75
2016-05-26T08:17:39.479Z,75
2016-05-26T08:18:41.778Z,75
2016-05-26T08:19:44.532Z,75
2016-05-26T08:20:41.722Z,75
2016-05-26T08:21:41.568Z,75
2016-05-26T08:22:41.945Z,75
2016-05-26T08:23:44.511Z,75
2016-05-26T08:24:41.498Z,75
2016-05-26T08:25:38.797Z,75
2016-05-26T08:26:38.472Z,75
2016-05-26T08:27:41.756Z,75
2016-05-26T08:28:38.852Z,75
2016-05-26T08:29:47.402Z,75
2016-05-26T08:30:38.202Z,80
2016-05-26T08:31:41.126Z,80
2016-05-26T08:32:38.129Z,80
2016-05-26T08:33:38.461Z,75
2016-05-26T08:34:38.352Z,80
2016-05-26T08:35:38.183Z,80
2016-05-26T08:36:46.968Z,80
2016-05-26T08:37:40.861Z,80
2016-05-26T08:38:37.802Z,80
2016-05-26T08:39:37.820Z,80
2016-05-26T08:40:43.790Z,80
2016-05-26T08:41:40.497Z,80
2016-05-26T08:42:41.032Z,80
2016-05-26T08:43:40.455Z,80
2016-05-26T08:44:37.365Z,80
2016-05-26T08:45:40.476Z,85
2016-05-26T08:46:37.713Z,85
2016-05-26T08:47:47.029Z,90
2016-05-26T08:48:38.188Z,95
2016-05-26T08:49:37.284Z,90
2016-05-26T08:50:40.287Z,85
2016-05-26T08:51:37.696Z,85
2016-05-26T08:52:43.229Z,85
2016-05-26T08:53:40.264Z,85
2016-05-26T08:54:49.109Z,85
2016-05-26T08:55:40.237Z,85
2016-05-26T08:56:43.412Z,85
2016-05-26T08:57:45.962Z,85
2016-05-26T08:58:37.089Z,85
2016-05-26T08:59:36.655Z,90
2016-05-26T09:00:39.814Z,85
2016-05-26T09:01:43.003Z,90
2016-05-26T09:02:36.991Z,90
2016-05-26T09:03:38.244Z,90
2016-05-26T09:04:39.621Z,90
2016-05-26T09:05:42.593Z,90
2016-05-26T09:06:39.549Z,90
2016-05-26T09:07:39.473Z,90
2016-05-26T09:08:45.585Z,85
2016-05-26T09:09:39.400Z,90
2016-05-26T09:10:43.856Z,90
2016-05-26T09:11:42.155Z,90
2016-05-26T09:12:39.440Z,90
2016-05-26T09:13:42.410Z,90
2016-05-26T09:14:45.179Z,95
2016-05-26T09:15:41.823Z,100
2016-05-26T09:16:35.919Z,100
2016-05-26T09:17:41.875Z,100
2016-05-26T09:18:36.049Z,95
2016-05-26T09:19:45.162Z,95
2016-05-26T09:20:35.929Z,90
2016-05-26T09:21:41.870Z,90
2016-05-26T09:22:35.795Z,90
2016-05-26T09:23:35.767Z,90
2016-05-26T09:24:35.754Z,90
2016-05-26T09:25:41.661Z,90
2016-05-26T09:26:35.603Z,90
2016-05-26T09:27:35.573Z,90
2016-05-26T09:28:35.561Z,100
2016-05-26T09:29:35.470Z,105
2016-05-26T09:30:38.817Z,100
2016-05-26T09:31:53.288Z,105
2016-05-26T09:32:35.337Z,105
2016-05-26T09:33:35.903Z,115
2016-05-26T09:34:35.436Z,110
2016-05-26T09:35:38.080Z,105
2016-05-26T09:36:38.363Z,115
2016-05-26T09:37:38.475Z,115
2016-05-26T09:38:35.603Z,110
2016-05-26T09:39:41.435Z,110
2016-05-26T09:40:40.843Z,110
2016-05-26T09:41:34.877Z,110
2016-05-26T09:42:50.099Z,115
2016-05-26T09:43:37.913Z,120
2016-05-26T09:44:35.479Z,120
2016-05-26T09:45:40.779Z,120
2016-05-26T09:46:38.172Z,125
2016-05-26T09:47:34.659Z,120
2016-05-26T09:48:37.334Z,115
2016-05-26T09:49:38.196Z,110
2016-05-26T09:50:34.526Z,105
2016-05-26T09:51:46.529Z,95
2016-05-26T09:52:37.547Z,95
2016-05-26T09:53:37.394Z,100
2016-05-26T09:54:37.975Z,105
2016-05-26T09:55:37.728Z,105
2016-05-26T09:56:43.511Z,100
2016-05-26T09:57:34.061Z,100
2016-05-26T09:58:40.439Z,100
2016-05-26T09:59:46.160Z,105
2016-05-26T10:00:40.319Z,110
2016-05-26T10:01:34.087Z,115
2016-05-26T10:02:36.839Z,120
2016-05-26T10:03:38.467Z,120
2016-05-26T10:04:36.892Z,125
2016-05-26T10:05:39.911Z,100
2016-05-26T10:06:37.038Z,95
2016-05-26T10:07:39.791Z,90
2016-05-26T10:08:39.934Z,90
2016-05-26T10:09:34.108Z,90
2016-05-26T10:10:36.705Z,95
2016-05-26T10:11:36.849Z,95
2016-05-26T10:12:39.852Z,95
2016-05-26T10:13:33.510Z,95
2016-05-26T10:14:33.310Z,95
2016-05-26T10:15:39.844Z,95
2016-05-26T10:16:33.440Z,100
2016-05-26T10:17:36.161Z,120
2016-05-26T10:18:42.336Z,125
2016-05-26T10:19:35.948Z,125
2016-05-26T10:20:33.232Z,135
2016-05-26T10:21:33.125Z,140
2016-05-26T10:22:36.940Z,140
2016-05-26T10:23:36.271Z,135
2016-05-26T10:24:38.868Z,125
2016-05-26T10:25:35.854Z,110
2016-05-26T10:26:33.279Z,100
2016-05-26T10:27:35.985Z,95
2016-05-26T10:28:36.051Z,95
2016-05-26T10:29:32.615Z,95
2016-05-26T10:30:32.806Z,95
2016-05-26T10:31:38.714Z,80
2016-05-26T10:32:35.483Z,80
2016-05-26T10:33:33.111Z,95
2016-05-26T10:34:32.550Z,100
2016-05-26T10:35:41.756Z,115
2016-05-26T10:36:41.352Z,125
2016-05-26T10:37:35.434Z,120
2016-05-26T10:38:38.389Z,110
2016-05-26T10:39:32.439Z,110
2016-05-26T10:40:35.520Z,105
2016-05-26T10:41:44.257Z,110
2016-05-26T10:42:41.932Z,110
2016-05-26T10:43:38.574Z,105
2016-05-26T10:44:35.140Z,110
2016-05-26T10:45:31.925Z,115
2016-05-26T10:46:32.021Z,120
2016-05-26T10:47:41.024Z,135
2016-05-26T10:48:39.651Z,155
2016-05-26T10:49:34.919Z,160
2016-05-26T10:50:35.062Z,170
2016-05-26T10:51:47.441Z,175
2016-05-26T10:52:37.631Z,195
2016-05-26T10:53:31.930Z,185
2016-05-26T10:54:34.901Z,165
2016-05-26T10:55:41.654Z,150
2016-05-26T10:56:35.078Z,135
2016-05-26T10:57:31.769Z,125
2016-05-26T10:58:31.818Z,135
2016-05-26T10:59:31.446Z,140
2016-05-26T11:00:34.433Z,135
2016-05-26T11:01:31.467Z,140
2016-05-26T11:02:31.345Z,140
2016-05-26T11:03:34.456Z,130
2016-05-26T11:04:34.256Z,135
2016-05-26T11:05:34.619Z,140
2016-05-26T11:06:31.012Z,140
2016-05-26T11:07:37.139Z,145
2016-05-26T11:08:31.299Z,145
2016-05-26T11:09:37.286Z,145
2016-05-26T11:10:34.491Z,160
2016-05-26T11:11:36.963Z,180
2016-05-26T11:12:33.919Z,190
2016-05-26T11:13:30.874Z,165
2016-05-26T11:14:37.033Z,160
2016-05-26T11:15:33.457Z,165
2016-05-26T11:16:31.257Z,175
2016-05-26T11:17:33.744Z,135
2016-05-26T11:18:34.216Z,125
2016-05-26T11:19:43.063Z,125
2016-05-26T11:20:42.315Z,120
2016-05-26T11:21:33.490Z,120
2016-05-26T11:22:39.977Z,115
2016-05-26T11:23:42.510Z,115
2016-05-26T11:24:30.935Z,125
2016-05-26T11:25:30.376Z,130
2016-05-26T11:26:36.315Z,130
2016-05-26T11:27:36.334Z,125
2016-05-26T11:28:36.430Z,130
2016-05-26T11:29:38.871Z,135
2016-05-26T11:30:33.358Z,130
2016-05-26T11:31:36.267Z,120
2016-05-26T11:32:42.097Z,115
2016-05-26T11:33:39.662Z,115
2016-05-26T11:34:35.931Z,110
2016-05-26T11:35:32.918Z,110
2016-05-26T11:36:33.061Z,110
2016-05-26T11:37:30.892Z,110
2016-05-26T11:38:35.973Z,110
2016-05-26T11:39:32.757Z,105
2016-05-26T11:40:29.885Z,105
2016-05-26T11:41:30.138Z,80
2016-05-26T11:42:29.609Z,85
2016-05-26T11:43:32.580Z,85
2016-05-26T11:44:32.521Z,100
2016-05-26T11:45:35.694Z,105
2016-05-26T11:46:35.432Z,110
2016-05-26T11:47:36.029Z,125
2016-05-26T11:48:35.438Z,130
2016-05-26T11:49:29.471Z,120
2016-05-26T11:50:28.958Z,120
2016-05-26T11:51:29.227Z,140
2016-05-26T11:52:35.183Z,155
2016-05-26T11:53:41.373Z,140
2016-05-26T11:54:43.938Z,125
2016-05-26T11:55:41.081Z,125
2016-05-26T11:56:38.054Z,125
2016-05-26T11:57:28.962Z,125
2016-05-26T11:58:35.433Z,130
2016-05-26T11:59:36.249Z,135
2016-05-26T12:00:34.673Z,140
2016-05-26T12:01:43.612Z,135
2016-05-26T12:02:28.928Z,125
2016-05-26T12:03:34.931Z,120
2016-05-26T12:04:55.684Z,120
2016-05-26T12:05:39.233Z,110
2016-05-26T12:06:37.798Z,130
2016-05-26T12:07:34.223Z,135
2016-05-26T12:08:34.335Z,140
2016-05-26T12:09:31.120Z,140
2016-05-26T12:10:37.856Z,135
2016-05-26T12:11:34.671Z,125
2016-05-26T12:12:28.299Z,125
2016-05-26T12:13:31.270Z,120
2016-05-26T12:14:34.242Z,120
2016-05-26T12:15:31.166Z,105
2016-05-26T12:16:31.153Z,110
2016-05-26T12:17:27.921Z,120
2016-05-26T12:18:31.971Z,145
2016-05-26T12:19:31.083Z,140
2016-05-26T12:20:27.961Z,130
2016-05-26T12:21:27.823Z,130
2016-05-26T12:22:28.060Z,135
2016-05-26T12:23:27.703Z,135
2016-05-26T12:24:27.613Z,135
2016-05-26T12:25:27.802Z,125
2016-05-26T12:26:30.914Z,125
2016-05-26T12:27:27.355Z,125
2016-05-26T12:28:27.607Z,120
2016-05-26T12:29:27.563Z,125
2016-05-26T12:30:30.535Z,140
2016-05-26T12:31:30.600Z,145
2016-05-26T12:32:27.478Z,140
2016-05-26T12:33:30.996Z,140
2016-05-26T12:34:33.421Z,150
2016-05-26T12:35:30.158Z,155
2016-05-26T12:36:27.253Z,160
2016-05-26T12:37:27.210Z,160
2016-05-26T12:38:30.167Z,165
2016-05-26T12:39:30.122Z,165
2016-05-26T12:40:30.312Z,165
2016-05-26T12:41:27.033Z,160
2016-05-26T12:42:33.036Z,170
2016-05-26T12:43:26.975Z,170
2016-05-26T12:44:29.948Z,170
2016-05-26T12:45:29.856Z,170
2016-05-26T12:46:29.672Z,175
2016-05-26T12:47:26.768Z,160
2016-05-26T12:48:26.739Z,155
2016-05-26T12:49:26.571Z,150
2016-05-26T12:50:26.885Z,145
2016-05-26T12:51:35.638Z,140
2016-05-26T12:52:32.813Z,140
2016-05-26T12:53:32.394Z,130
2016-05-26T12:54:26.459Z,125
2016-05-26T12:55:26.430Z,130
2016-05-26T12:56:35.402Z,140
2016-05-26T12:57:29.405Z,155
2016-05-26T12:58:26.532Z,155
2016-05-26T12:59:29.098Z,150
2016-05-26T13:00:26.113Z,135
2016-05-26T13:01:26.038Z,135
2016-05-26T13:02:32.121Z,135
2016-05-26T13:03:26.106Z,135
2016-05-26T13:04:29.673Z,135
2016-05-26T13:05:26.251Z,140
2016-05-26T13:06:48.898Z,135
2016-05-26T13:07:28.931Z,130
2016-05-26T13:08:28.918Z,135
2016-05-26T13:09:26.309Z,135
2016-05-26T13:10:25.812Z,135
2016-05-26T13:11:31.989Z,140
2016-05-26T13:12:25.958Z,140
2016-05-26T13:13:28.651Z,135
2016-05-26T13:14:28.591Z,135
2016-05-26T13:15:25.153Z,120
2016-05-26T13:16:31.611Z,135
2016-05-26T13:17:29.427Z,135
2016-05-26T13:18:25.302Z,135
2016-05-26T13:19:26.211Z,135
2016-05-26T13:20:28.872Z,140
2016-05-26T13:21:28.391Z,140
2016-05-26T13:22:31.143Z,140
2016-05-26T13:23:31.458Z,140
2016-05-26T13:24:31.243Z,145
2016-05-26T13:25:28.793Z,145
2016-05-26T13:26:28.435Z,145
2016-05-26T13:27:24.920Z,145
2016-05-26T13:28:31.035Z,150
2016-05-26T13:29:28.210Z,150
2016-05-26T13:30:25.147Z,155
2016-05-26T13:31:33.965Z,155
2016-05-26T13:32:27.858Z,155
2016-05-26T13:33:28.032Z,155
2016-05-26T13:34:28.363Z,160
2016-05-26T13:35:27.723Z,160
2016-05-26T13:36:33.760Z,170
2016-05-26T13:37:24.541Z,175
2016-05-26T13:38:33.623Z,180
2016-05-26T13:39:27.577Z,185
2016-05-26T13:40:24.706Z,185
2016-05-26T13:41:33.492Z,175
2016-05-26T13:42:25.148Z,180
2016-05-26T13:43:25.447Z,180
2016-05-26T13:44:27.356Z,180
2016-05-26T13:45:27.297Z,180
2016-05-26T13:46:27.267Z,175
2016-05-26T13:47:24.489Z,170
2016-05-26T13:48:25.444Z,165
2016-05-26T13:49:24.213Z,170
2016-05-26T13:50:27.122Z,170
2016-05-26T13:51:24.485Z,170
2016-05-26T13:52:23.706Z,165
2016-05-26T13:53:23.911Z,155
2016-05-26T13:54:27.102Z,155
2016-05-26T13:55:27.027Z,155
2016-05-26T13:56:24.030Z,155
2016-05-26T13:57:23.985Z,165
2016-05-26T13:58:23.909Z,180
2016-05-26T13:59:27.413Z,180
2016-05-26T14:00:26.680Z,180
2016-05-26T14:01:23.605Z,185
2016-05-26T14:02:26.779Z,190
2016-05-26T14:03:26.532Z,185
2016-05-26T14:04:24.520Z,185
2016-05-26T14:05:26.476Z,190
2016-05-26T14:06:26.634Z,190
2016-05-26T14:07:23.918Z,195
2016-05-26T14:08:29.499Z,200
2016-05-26T14:09:26.330Z,200
2016-05-26T14:10:24.036Z,205
2016-05-26T14:11:23.210Z,205
2016-05-26T14:12:29.197Z,205
2016-05-26T14:13:26.028Z,205